Time;durP1;ratioP1;P1;durP2;ratioP2;P2;SDS_P1;SDS_P2;PMS_P1;PMS_P2;Temp;Humidity;BMP_temperature;BMP_pressure;BME280_temperature;BME280_humidity;BME280_pressure;Samples;Min_cycle;Max_cycle;Signal;HPM_P1;HPM_P2
2021/05/23 00:01:35;;;;;;;0.55;0.47;;;;;;;5.82;70.32;99881.44;6186239;23;20069;-79
2021/05/23 00:04:19;;;;;;;2.78;0.88;;;;;;;5.69;70.12;99864.41;6183342;23;20087;-80
2021/05/23 00:06:44;;;;;;;4.28;0.60;;;;;;;5.71;70.40;99873.13;6159624;23;20001;-79
2021/05/23 00:09:49;;;;;;;0.80;0.57;;;;;;;5.79;70.66;99888.16;6157057;23;20001;-79
2021/05/23 00:13:28;;;;;;;3.90;0.93;;;;;;;5.53;70.63;99846.25;6134535;23;20005;-78
2021/05/23 00:16:33;;;;;;;;;;;;;;;;;;;;;
2021/05/23 00:23:03;;;;;;;;;;;;;;;;;;;;;
2021/05/23 00:38:38;;;;;;;1.27;0.65;;;;;;;5.57;71.76;99860.97;6259487;22;20027;-78
2021/05/23 00:42:05;;;;;;;;;;;;;;;;;;;;;
2021/05/23 00:48:37;;;;;;;1.00;0.73;;;;;;;5.75;71.68;99852.59;6097701;23;20002;-77
2021/05/23 00:57:41;;;;;;;;;;;;;;;;;;;;;
2021/05/23 01:00:37;;;;;;;;;;;;;;;;;;;;;
2021/05/23 01:07:38;;;;;;;0.47;0.47;;;;;;;6.01;70.43;99880.09;5942315;24;20016;-81
2021/05/23 01:34:39;;;;;;;;;;;;;;;;;;;;;
2021/05/23 01:38:09;;;;;;;;;;;;;;;;;;;;;
2021/05/23 01:40:36;;;;;;;6.32;0.70;;;;;;;5.06;71.21;99834.63;6020075;23;20048;-80
2021/05/23 01:43:09;;;;;;;1.17;0.45;;;;;;;5.17;71.01;99857.31;6059892;23;20404;-81
2021/05/23 01:45:41;;;;;;;3.92;0.63;;;;;;;5.18;71.51;99860.84;6133453;23;20006;-80
2021/05/23 01:48:10;;;;;;;0.68;0.50;;;;;;;5.06;71.34;99848.16;6131350;23;20490;-79
2021/05/23 01:51:25;;;;;;;0.55;0.20;;;;;;;4.98;71.36;99835.03;6202537;22;20010;-80
2021/05/23 01:54:05;;;;;;;0.30;0.30;;;;;;;4.99;71.18;99844.78;6254608;22;20023;-78
2021/05/23 01:56:31;;;;;;;0.80;0.35;;;;;;;4.93;71.74;99832.22;6228469;22;20004;-80
2021/05/23 01:59:02;;;;;;;0.10;0.10;;;;;;;5.00;71.41;99843.72;6281063;22;20004;-79
2021/05/23 02:01:48;;;;;;;0.10;0.10;;;;;;;5.06;71.33;99853.59;6255717;22;20008;-80
2021/05/23 02:04:23;;;;;;;0.20;0.20;;;;;;;4.95;71.54;99835.53;6223240;22;20004;-80
2021/05/23 02:06:50;;;;;;;0.10;0.00;;;;;;;4.88;71.24;99832.13;6254978;22;20095;-79
2021/05/23 02:09:18;;;;;;;0.10;0.10;;;;;;;4.87;71.27;99835.91;6261168;22;19992;-78
2021/05/23 02:12:04;;;;;;;0.10;0.10;;;;;;;4.94;71.13;99847.41;6290980;22;20034;-80
2021/05/23 02:14:29;;;;;;;0.60;0.30;;;;;;;4.95;71.50;99854.50;6248778;22;20407;-77
2021/05/23 02:20:37;;;;;;;0.43;0.30;;;;;;;4.77;71.06;99836.53;6105276;23;20059;-78
2021/05/23 02:23:14;;;;;;;6.53;0.88;;;;;;;4.81;72.03;99834.16;6210709;22;20010;-78
2021/05/23 02:26:03;;;;;;;3.47;0.75;;;;;;;4.92;71.81;99844.16;6247942;22;20066;-77
2021/05/23 02:28:31;;;;;;;6.10;0.40;;;;;;;4.88;72.61;99832.13;6269579;22;20102;-77
2021/05/23 02:30:56;;;;;;;3.45;0.75;;;;;;;4.88;72.54;99838.38;6275038;22;20007;-77
2021/05/23 02:33:24;;;;;;;2.55;0.70;;;;;;;4.89;72.34;99841.88;6252216;22;20003;-78
2021/05/23 02:35:53;;;;;;;4.22;0.70;;;;;;;4.87;72.57;99836.72;6255009;22;20008;-78
2021/05/23 02:38:22;;;;;;;4.30;0.60;;;;;;;4.99;72.68;99850.22;6282814;22;20011;-78
2021/05/23 02:41:07;;;;;;;3.00;0.80;;;;;;;4.81;72.44;99826.03;6256231;22;20033;-78
2021/05/23 02:54:03;;;;;;;0.85;0.60;;;;;;;4.53;72.99;99811.44;6163207;23;20060;-80
2021/05/23 02:56:57;;;;;;;0.98;0.85;;;;;;;4.68;73.11;99821.72;6155966;22;20024;-80
2021/05/23 02:59:28;;;;;;;1.27;0.60;;;;;;;4.49;73.26;99800.25;6276813;22;20028;-79
2021/05/23 03:01:53;;;;;;;2.28;0.75;;;;;;;4.68;73.45;99844.22;6222180;22;20008;-80
2021/05/23 03:04:47;;;;;;;0.85;0.68;;;;;;;4.57;73.54;99823.44;6225381;22;20008;-78
2021/05/23 03:07:17;;;;;;;4.82;0.40;;;;;;;4.43;73.71;99803.13;6227938;22;20041;-79
2021/05/23 03:10:14;;;;;;;0.40;0.40;;;;;;;4.59;73.98;99840.25;6282471;22;20062;-78
2021/05/23 03:12:50;;;;;;;0.77;0.70;;;;;;;4.63;73.94;99844.13;6244762;22;20038;-78
2021/05/23 03:15:18;;;;;;;2.08;0.68;;;;;;;4.44;74.00;99808.28;6282081;22;20007;-78
2021/05/23 03:18:07;;;;;;;1.05;0.50;;;;;;;4.54;74.03;99821.19;6283512;22;20004;-78
2021/05/23 03:20:34;;;;;;;0.70;0.65;;;;;;;4.54;73.89;99810.34;6256188;22;20068;-79
2021/05/23 03:26:37;;;;;;;0.63;0.40;;;;;;;4.78;73.89;99832.75;6288434;22;20008;-78
2021/05/23 03:33:25;;;;;;;1.50;0.85;;;;;;;4.85;74.15;99830.72;6174315;23;20084;-79
2021/05/23 03:39:58;;;;;;;2.17;0.90;;;;;;;4.85;74.11;99843.47;6075721;23;20019;-81
2021/05/23 03:42:37;;;;;;;1.52;0.70;;;;;;;4.69;74.10;99820.69;6053087;23;20010;-78
2021/05/23 03:45:45;;;;;;;;;;;;;;;;;;;;;
2021/05/23 03:48:32;;;;;;;0.45;0.30;;;;;;;4.78;73.75;99834.66;6100153;23;20077;-78
2021/05/23 03:54:37;;;;;;;0.52;0.40;;;;;;;4.90;73.66;99835.41;5991840;24;20012;-80
2021/05/23 03:57:41;;;;;;;;;;;;;;;;;;;;;
2021/05/23 04:00:17;;;;;;;0.47;0.20;;;;;;;4.77;73.37;99808.63;6141885;23;20114;-79
2021/05/23 04:03:24;;;;;;;;;;;;;;;;;;;;;
2021/05/23 04:06:13;;;;;;;0.20;0.20;;;;;;;4.74;73.08;99814.53;6127882;23;20061;-79
2021/05/23 04:08:49;;;;;;;0.30;0.30;;;;;;;4.93;73.54;99837.63;6101938;23;20030;-77
2021/05/23 04:11:33;;;;;;;0.20;0.20;;;;;;;4.92;73.48;99829.75;6109843;23;20016;-79
2021/05/23 04:14:15;;;;;;;0.32;0.32;;;;;;;4.75;73.34;99806.16;6132580;23;20771;-79
2021/05/23 04:16:41;;;;;;;0.38;0.28;;;;;;;4.93;73.06;99837.63;6232978;22;20011;-80
2021/05/23 04:20:17;;;;;;;;;;;;;;;;;;;;;
2021/05/23 04:33:52;;;;;;;1.65;0.47;;;;;;;5.00;73.95;99843.72;6063912;23;20047;-81
2021/05/23 04:43:35;;;;;;;0.30;0.30;;;;;;;5.35;74.20;99864.41;5912420;24;20046;-81
2021/05/23 04:53:18;;;;;;;4.68;0.30;;;;;;;5.81;73.12;99858.91;5917763;24;20030;-79
2021/05/23 04:59:54;;;;;;;;;;;;;;;;;;;;;
2021/05/23 05:05:51;;;;;;;0.20;0.20;;;;;;;6.45;71.87;99823.16;5852626;24;20095;-76
2021/05/23 05:08:25;;;;;;;0.55;0.40;;;;;;;6.58;72.15;99821.09;5833937;24;20010;-78
2021/05/23 05:10:59;;;;;;;0.70;0.30;;;;;;;6.63;71.90;99813.03;5881081;24;20017;-78
2021/05/23 05:13:34;;;;;;;4.28;0.20;;;;;;;6.78;71.20;99817.81;6056224;22;20004;-79
2021/05/23 05:16:12;;;;;;;;;;;;;;;;;;;;;
2021/05/23 05:18:40;;;;;;;0.20;0.13;;;;;;;7.19;70.69;99839.94;6291318;22;20031;-79
2021/05/23 05:21:16;;;;;;;;;;;;;;;;;;;;;
2021/05/23 05:23:45;;;;;;;0.45;0.20;;;;;;;7.46;70.13;99826.31;6294970;22;19999;-82
2021/05/23 05:26:13;;;;;;;0.17;0.10;;;;;;;7.63;69.74;99831.59;6241653;22;20025;-83
2021/05/23 05:28:43;;;;;;;1.50;0.65;;;;;;;7.65;70.14;99801.41;6271225;22;20003;-83
2021/05/23 05:31:09;;;;;;;3.47;0.40;;;;;;;7.82;69.52;99814.84;6258836;22;20008;-77
2021/05/23 05:33:40;;;;;;;1.55;0.40;;;;;;;7.91;69.93;99810.53;6286655;22;20011;-79
2021/05/23 05:36:13;;;;;;;0.95;0.30;;;;;;;8.13;69.79;99812.31;6257590;22;20020;-79
2021/05/23 05:38:42;;;;;;;1.60;1.15;;;;;;;8.32;68.97;99815.38;6257180;22;20093;-78
2021/05/23 05:43:53;;;;;;;3.60;0.30;;;;;;;8.35;68.49;99793.91;6263948;22;20011;-77
2021/05/23 05:46:25;;;;;;;0.20;0.20;;;;;;;8.56;68.41;99804.91;6253889;22;20003;-77
2021/05/23 05:48:51;;;;;;;0.90;0.40;;;;;;;8.54;68.01;99802.44;6256686;22;19996;-77
2021/05/23 05:51:21;;;;;;;0.20;0.20;;;;;;;8.53;67.53;99798.06;6257626;22;20025;-76
2021/05/23 05:53:59;;;;;;;;;;;;;;;;;;;;;
2021/05/23 05:56:25;;;;;;;2.40;0.45;;;;;;;8.65;67.51;99807.91;6262196;22;20023;-77
2021/05/23 05:58:53;;;;;;;0.75;0.40;;;;;;;8.55;67.78;99790.44;6286025;22;20012;-77
2021/05/23 06:01:29;;;;;;;0.52;0.30;;;;;;;8.69;67.43;99804.38;6293449;22;20445;-76
2021/05/23 06:03:54;;;;;;;0.32;0.10;;;;;;;8.64;67.36;99784.47;6263989;22;20004;-77
2021/05/23 06:06:23;;;;;;;0.32;0.32;;;;;;;8.65;67.26;99786.13;6261215;22;20003;-76
2021/05/23 06:08:48;;;;;;;0.20;0.20;;;;;;;8.71;66.71;99804.94;6254834;22;20007;-78
2021/05/23 06:11:14;;;;;;;3.47;0.30;;;;;;;8.58;67.45;99791.00;6257998;22;20007;-77
2021/05/23 06:13:49;;;;;;;;;;;;;;;;;;;;;
2021/05/23 06:16:24;;;;;;;2.15;0.50;;;;;;;8.72;68.17;99803.03;6286296;22;20652;-76
2021/05/23 06:18:50;;;;;;;0.30;0.30;;;;;;;8.81;67.23;99795.97;6282724;22;19999;-75
2021/05/23 06:21:18;;;;;;;0.73;0.30;;;;;;;8.80;68.03;99777.16;6278863;22;20003;-75
2021/05/23 06:24:03;;;;;;;2.58;0.63;;;;;;;8.95;67.79;99784.53;6280766;22;20003;-77
2021/05/23 06:26:40;;;;;;;3.65;0.30;;;;;;;9.01;67.40;99797.06;6274815;22;20003;-74
2021/05/23 06:29:10;;;;;;;3.47;0.68;;;;;;;8.96;67.38;99783.44;6276087;22;20405;-76
2021/05/23 06:31:45;;;;;;;3.10;0.55;;;;;;;8.97;66.95;99798.72;6225041;22;20012;-78
2021/05/23 06:34:34;;;;;;;0.88;0.60;;;;;;;8.88;67.33;99779.34;6252056;22;20326;-78
2021/05/23 06:37:03;;;;;;;1.35;0.60;;;;;;;9.12;68.25;99790.53;6249567;22;20018;-78
2021/05/23 06:39:39;;;;;;;;;;;;;;;;;;;;;
2021/05/23 06:42:05;;;;;;;0.73;0.52;;;;;;;9.53;68.36;99793.25;6279387;22;20052;-78
2021/05/23 06:44:41;;;;;;;1.98;0.40;;;;;;;9.74;68.36;99785.06;6250036;22;20007;-79
2021/05/23 06:47:09;;;;;;;0.88;0.30;;;;;;;9.99;67.75;99797.00;6252540;22;20030;-78
2021/05/23 06:49:35;;;;;;;0.22;0.22;;;;;;;10.02;67.55;99789.09;6250178;22;20018;-78
2021/05/23 06:52:00;;;;;;;0.75;0.30;;;;;;;10.14;66.96;99794.22;6220598;22;20008;-78
2021/05/23 06:54:27;;;;;;;2.05;0.40;;;;;;;10.30;67.39;99798.53;6250283;22;20173;-77
2021/05/23 06:56:55;;;;;;;1.40;0.40;;;;;;;10.37;67.15;99797.47;6249710;22;20003;-78
2021/05/23 06:59:23;;;;;;;1.48;0.55;;;;;;;10.41;66.15;99795.78;6281168;22;20050;-78
2021/05/23 07:02:00;;;;;;;3.92;0.60;;;;;;;10.43;66.15;99793.59;6251699;22;20006;-78
2021/05/23 07:04:27;;;;;;;0.60;0.35;;;;;;;10.40;66.40;99792.25;6230084;22;20088;-79
2021/05/23 07:07:04;;;;;;;1.30;0.20;;;;;;;10.37;66.69;99778.34;6225492;22;20011;-79
2021/05/23 07:09:33;;;;;;;0.40;0.30;;;;;;;10.46;66.58;99784.84;6253960;22;20064;-79
2021/05/23 07:11:58;;;;;;;2.35;0.57;;;;;;;10.53;66.47;99784.53;6253496;22;20010;-79
2021/05/23 07:14:31;;;;;;;2.20;0.52;;;;;;;10.65;66.35;99787.75;6231688;22;19999;-79
2021/05/23 07:17:06;;;;;;;1.95;1.10;;;;;;;10.75;66.53;99795.09;6255240;22;20010;-78
2021/05/23 07:19:34;;;;;;;1.55;0.55;;;;;;;10.80;66.60;99800.50;6233046;22;20411;-78
2021/05/23 07:22:28;;;;;;;;;;;;;;;;;;;;;
2021/05/23 07:25:36;;;;;;;;;;;;;;;;;;;;;
2021/05/23 07:28:05;;;;;;;1.40;0.50;;;;;;;10.96;66.46;99793.84;6294392;22;20006;-78
2021/05/23 07:30:43;;;;;;;;;;;;;;;;;;;;;
2021/05/23 07:33:35;;;;;;;1.75;0.77;;;;;;;11.12;65.69;99763.63;6292296;22;20113;-81
2021/05/23 07:36:24;;;;;;;4.38;0.60;;;;;;;11.39;65.83;99796.00;6252953;22;20011;-79
2021/05/23 07:39:15;;;;;;;1.75;0.50;;;;;;;11.60;64.99;99796.63;6263902;22;20015;-80
2021/05/23 07:42:03;;;;;;;1.88;0.70;;;;;;;11.74;64.41;99793.19;6184638;22;20016;-80
2021/05/23 07:45:54;;;;;;;;;;;;;;;;;;;;;
2021/05/23 07:48:05;;;;;;;1.88;0.70;;;;;;;11.81;63.77;99782.72;6277741;22;20493;-78
2021/05/23 07:51:33;;;;;;;3.50;0.60;;;;;;;12.04;63.64;99792.09;6263234;22;20004;-77
2021/05/23 07:58:10;;;;;;;;;;;;;;;;;;;;;
2021/05/23 08:00:35;;;;;;;1.38;0.45;;;;;;;12.52;61.82;99778.34;6130539;23;20018;-77
2021/05/23 08:03:02;;;;;;;4.80;0.35;;;;;;;12.72;62.33;99776.44;6230029;22;20011;-78
2021/05/23 08:06:27;;;;;;;2.40;0.50;;;;;;;12.97;61.65;99778.00;6257840;22;20015;-78
2021/05/23 08:08:58;;;;;;;7.05;0.47;;;;;;;13.03;59.99;99781.47;6255138;22;20004;-75
2021/05/23 08:11:36;;;;;;;;;;;;;;;;;;;;;
2021/05/23 08:14:12;;;;;;;0.65;0.30;;;;;;;13.04;59.89;99759.22;6260743;22;20027;-76
2021/05/23 08:16:50;;;;;;;;;;;;;;;;;;;;;
2021/05/23 08:19:31;;;;;;;;;;;;;;;;;;;;;
2021/05/23 08:22:28;;;;;;;;;;;;;;;;;;;;;
2021/05/23 08:25:06;;;;;;;;;;;;;;;;;;;;;
2021/05/23 08:27:36;;;;;;;0.82;0.50;;;;;;;13.23;58.42;99752.91;6285093;22;20017;-76
2021/05/23 08:30:02;;;;;;;5.10;0.52;;;;;;;13.41;58.54;99771.25;6256218;22;20000;-75
2021/05/23 08:32:48;;;;;;;4.25;0.80;;;;;;;13.33;57.19;99743.66;6260917;22;20007;-78
2021/05/23 08:35:42;;;;;;;0.90;0.47;;;;;;;13.13;57.40;99764.00;6260405;22;20007;-77
2021/05/23 08:38:21;;;;;;;;;;;;;;;;;;;;;
2021/05/23 08:40:56;;;;;;;1.13;0.30;;;;;;;12.34;59.78;99749.81;6284460;22;20035;-77
2021/05/23 08:43:25;;;;;;;2.72;0.47;;;;;;;11.99;62.81;99760.09;6257163;22;20376;-77
2021/05/23 08:46:00;;;;;;;8.10;0.47;;;;;;;11.61;64.80;99738.00;6255326;22;20003;-77
2021/05/23 08:48:44;;;;;;;0.60;0.32;;;;;;;11.38;67.99;99755.22;6279638;22;20472;-78
2021/05/23 08:51:53;;;;;;;;;;;;;;;;;;;;;
2021/05/23 08:54:50;;;;;;;3.00;0.43;;;;;;;11.99;67.37;99732.69;6287424;22;20031;-77
2021/05/23 08:57:45;;;;;;;2.05;0.60;;;;;;;12.59;66.41;99745.09;6228855;22;20007;-78
2021/05/23 09:04:40;;;;;;;;;;;;;;;;;;;;;
2021/05/23 09:08:01;;;;;;;;;;;;;;;;;;;;;
2021/05/23 09:10:58;;;;;;;1.60;0.50;;;;;;;14.11;55.85;99725.44;6288440;22;20038;-79
2021/05/23 09:14:17;;;;;;;;;;;;;;;;;;;;;
2021/05/23 09:16:43;;;;;;;11.00;0.60;;;;;;;14.52;51.61;99742.19;6239075;22;20027;-77
2021/05/23 09:19:08;;;;;;;4.40;0.85;;;;;;;14.63;51.84;99727.09;6287361;22;20003;-76
2021/05/23 09:21:47;;;;;;;0.82;0.40;;;;;;;15.00;51.93;99727.91;6258666;22;20015;-77
2021/05/23 09:24:15;;;;;;;3.78;0.70;;;;;;;15.21;49.02;99752.97;6283575;22;20045;-77
2021/05/23 09:26:42;;;;;;;3.03;0.85;;;;;;;15.10;49.92;99746.94;6253986;22;20015;-76
2021/05/23 09:29:19;;;;;;;;;;;;;;;;;;;;;
2021/05/23 09:32:10;;;;;;;3.30;0.85;;;;;;;15.32;49.91;99737.84;6286988;22;20031;-77
2021/05/23 09:35:07;;;;;;;6.03;1.00;;;;;;;15.34;48.45;99721.00;6287048;22;19999;-76
2021/05/23 09:37:33;;;;;;;4.10;0.60;;;;;;;15.39;48.32;99737.41;6244757;22;20019;-75
2021/05/23 09:40:55;;;;;;;0.43;0.38;;;;;;;15.64;48.15;99746.13;6257391;22;20007;-75
2021/05/23 09:43:23;;;;;;;4.25;0.57;;;;;;;15.48;46.38;99735.50;6245003;22;20004;-75
2021/05/23 09:46:11;;;;;;;4.53;0.50;;;;;;;15.12;46.96;99714.38;6257959;22;20067;-78
2021/05/23 09:48:59;;;;;;;;;;;;;;;;;;;;;
2021/05/23 09:51:38;;;;;;;;;;;;;;;;;;;;;
2021/05/23 09:54:25;;;;;;;3.65;0.43;;;;;;;14.72;52.10;99714.25;6284405;22;20035;-75
2021/05/23 09:57:18;;;;;;;2.35;0.75;;;;;;;14.88;50.17;99697.34;6256066;22;20011;-74
2021/05/23 10:00:11;;;;;;;1.33;0.50;;;;;;;15.40;49.13;99727.97;6284402;22;20101;-78
2021/05/23 10:03:48;;;;;;;2.80;0.55;;;;;;;15.69;47.76;99708.19;6259982;22;20011;-78
2021/05/23 10:06:27;;;;;;;4.28;0.95;;;;;;;15.85;46.95;99714.13;6128484;23;20401;-71
2021/05/23 10:09:05;;;;;;;4.22;0.50;;;;;;;15.76;47.07;99706.94;6186206;22;20004;-75
2021/05/23 10:11:30;;;;;;;1.50;0.43;;;;;;;15.68;47.63;99722.28;6255909;22;20334;-79
2021/05/23 10:14:06;;;;;;;;;;;;;;;;;;;;;
2021/05/23 10:16:35;;;;;;;1.33;0.38;;;;;;;15.11;52.72;99736.72;6286525;22;20031;-78
2021/05/23 10:19:51;;;;;;;3.35;0.98;;;;;;;14.19;61.04;99736.84;6257729;22;20052;-75
2021/05/23 10:22:16;;;;;;;5.78;0.30;;;;;;;13.01;65.89;99735.13;6266747;22;20015;-76
2021/05/23 10:24:57;;;;;;;0.88;0.30;;;;;;;12.53;67.52;99738.03;6256536;22;20007;-78
2021/05/23 10:27:30;;;;;;;1.92;0.30;;;;;;;11.98;68.56;99720.09;6256658;22;20078;-74
2021/05/23 10:29:58;;;;;;;4.43;0.60;;;;;;;11.78;69.15;99709.34;6278625;22;20019;-74
2021/05/23 10:32:29;;;;;;;2.42;0.32;;;;;;;11.87;69.48;99745.94;6287065;22;20016;-81
2021/05/23 10:35:21;;;;;;;4.95;1.10;;;;;;;11.93;68.21;99733.88;6257545;22;20026;-77
2021/05/23 10:37:48;;;;;;;3.67;0.75;;;;;;;11.92;67.26;99732.19;6254991;22;20071;-75
2021/05/23 10:40:29;;;;;;;5.32;0.40;;;;;;;12.13;67.74;99734.72;6272838;22;20027;-72
2021/05/23 10:42:57;;;;;;;6.10;1.10;;;;;;;12.25;66.57;99724.16;6281571;22;20003;-73
2021/05/23 10:45:36;;;;;;;2.63;0.45;;;;;;;12.58;66.31;99724.25;6284728;22;20018;-75
2021/05/23 10:48:13;;;;;;;2.33;1.23;;;;;;;12.77;65.15;99739.88;6256343;22;20423;-77
2021/05/23 10:50:44;;;;;;;4.32;0.85;;;;;;;12.77;61.53;99723.44;6255616;22;19999;-75
2021/05/23 10:53:10;;;;;;;2.53;0.40;;;;;;;12.71;63.12;99752.88;6252185;22;20426;-75
2021/05/23 10:55:50;;;;;;;4.47;0.82;;;;;;;12.44;65.45;99710.47;6229755;22;20011;-76
2021/05/23 10:58:24;;;;;;;5.70;0.70;;;;;;;12.53;65.19;99724.34;6237150;22;20438;-77
2021/05/23 11:00:54;;;;;;;3.22;0.40;;;;;;;12.77;62.50;99717.94;6259480;22;20003;-77
2021/05/23 11:03:20;;;;;;;8.45;0.80;;;;;;;12.93;61.36;99706.41;6287173;22;20062;-78
2021/05/23 11:05:47;;;;;;;2.33;0.80;;;;;;;13.30;60.48;99719.53;6260899;22;20099;-79
2021/05/23 11:08:39;;;;;;;1.30;0.40;;;;;;;13.59;59.95;99713.81;6288199;22;20003;-81
2021/05/23 11:11:05;;;;;;;2.30;0.55;;;;;;;13.88;57.69;99699.00;6233087;22;20007;-80
2021/05/23 11:13:34;;;;;;;7.85;0.85;;;;;;;14.09;56.09;99705.69;6261081;22;20030;-75
2021/05/23 11:16:17;;;;;;;1.60;0.55;;;;;;;14.09;54.54;99686.44;6286143;22;20023;-77
2021/05/23 11:18:49;;;;;;;5.25;0.70;;;;;;;14.04;57.62;99705.78;6285869;22;19999;-76
2021/05/23 11:21:16;;;;;;;2.78;0.70;;;;;;;13.47;65.30;99716.25;6259330;22;20071;-77
2021/05/23 11:23:49;;;;;;;3.70;0.95;;;;;;;12.94;68.63;99682.53;6283588;22;20606;-78
2021/05/23 11:26:36;;;;;;;3.92;1.15;;;;;;;12.66;69.94;99684.34;6253743;22;20004;-76
2021/05/23 11:29:03;;;;;;;4.40;0.73;;;;;;;12.62;68.96;99688.81;6278237;22;19995;-76
2021/05/23 11:31:37;;;;;;;8.10;1.08;;;;;;;12.52;69.27;99704.31;6254356;22;20083;-77
2021/05/23 11:34:08;;;;;;;11.10;0.90;;;;;;;12.29;67.97;99681.31;6284428;22;20292;-77
2021/05/23 11:36:39;;;;;;;10.07;0.90;;;;;;;11.92;66.97;99693.03;6283365;22;20053;-77
2021/05/23 11:39:12;;;;;;;11.10;0.88;;;;;;;11.72;65.96;99677.66;6260563;22;20073;-77
2021/05/23 11:41:43;;;;;;;2.30;0.63;;;;;;;11.68;65.88;99677.41;6253584;22;20371;-74
2021/05/23 11:44:12;;;;;;;2.15;0.52;;;;;;;11.98;65.67;99711.88;6282024;22;20003;-74
2021/05/23 11:46:50;;;;;;;6.40;0.63;;;;;;;12.15;64.86;99686.72;6280473;22;20008;-74
2021/05/23 11:49:27;;;;;;;1.50;0.93;;;;;;;12.35;63.73;99674.69;6253021;22;20026;-73
2021/05/23 11:52:06;;;;;;;3.58;0.45;;;;;;;12.46;61.34;99669.03;6249668;22;20418;-75
2021/05/23 11:54:34;;;;;;;5.97;1.13;;;;;;;12.32;62.65;99674.44;6254402;22;20004;-72
2021/05/23 11:57:00;;;;;;;2.83;0.50;;;;;;;11.88;71.04;99663.50;6281474;22;20078;-71
2021/05/23 11:59:35;;;;;;;6.88;0.98;;;;;;;11.77;73.84;99683.06;6282241;22;20472;-74
2021/05/23 12:02:03;;;;;;;0.98;0.55;;;;;;;11.86;74.20;99676.66;6255677;22;20010;-73
2021/05/23 12:04:40;;;;;;;4.75;1.00;;;;;;;12.03;74.09;99665.25;6284173;22;20006;-73
2021/05/23 12:07:08;;;;;;;2.75;0.75;;;;;;;12.18;72.97;99646.97;6202667;22;20023;-73
2021/05/23 12:09:50;;;;;;;3.20;0.43;;;;;;;12.32;67.74;99642.34;6283207;22;20000;-72
2021/05/23 12:12:23;;;;;;;6.78;0.85;;;;;;;12.29;66.58;99631.97;6276085;22;20026;-74
2021/05/23 12:15:16;;;;;;;;;;;;;;;;;;;;;
2021/05/23 12:18:01;;;;;;;;;;;;;;;;;;;;;
2021/05/23 12:20:40;;;;;;;8.43;1.20;;;;;;;11.78;65.41;99640.88;6284310;22;20023;-73
2021/05/23 12:23:05;;;;;;;1.63;0.63;;;;;;;11.53;68.09;99626.38;6250716;22;20003;-73
2021/05/23 12:25:32;;;;;;;2.45;0.90;;;;;;;11.50;69.40;99665.28;6282021;22;20000;-74
2021/05/23 12:28:07;;;;;;;10.43;1.75;;;;;;;10.93;71.51;99643.97;6283828;22;20008;-73
2021/05/23 12:31:01;;;;;;;1.50;0.43;;;;;;;10.56;74.81;99652.75;6280921;22;20007;-77
2021/05/23 12:33:37;;;;;;;;;;;;;;;;;;;;;
2021/05/23 12:36:16;;;;;;;3.30;0.80;;;;;;;10.45;78.08;99624.66;6283576;22;20809;-80
2021/05/23 12:39:10;;;;;;;3.50;0.57;;;;;;;10.71;78.52;99627.22;6252054;23;20019;-79
2021/05/23 12:42:36;;;;;;;;;;;;;;;;;;;;;
2021/05/23 12:45:08;;;;;;;6.28;1.23;;;;;;;11.38;77.99;99621.09;6250165;22;20035;-83
2021/05/23 12:47:56;;;;;;;4.18;0.80;;;;;;;11.81;78.05;99621.09;6255578;23;20421;-82
2021/05/23 12:50:41;;;;;;;9.15;1.10;;;;;;;11.95;75.04;99627.53;6250672;23;20004;-82
2021/05/23 12:53:33;;;;;;;2.57;0.53;;;;;;;12.01;73.35;99603.63;6253667;23;20307;-83
2021/05/23 12:56:34;;;;;;;7.65;1.00;;;;;;;12.13;68.96;99611.38;6253161;23;20415;-81
2021/05/23 12:59:17;;;;;;;11.18;0.95;;;;;;;12.04;67.65;99624.94;6250286;23;20091;-83
2021/05/23 13:01:53;;;;;;;;;;;;;;;;;;;;;
2021/05/23 13:05:09;;;;;;;;;;;;;;;;;;;;;
2021/05/23 13:07:53;;;;;;;2.35;0.55;;;;;;;12.00;65.38;99594.59;6257742;22;20036;-80
2021/05/23 13:10:32;;;;;;;;;;;;;;;;;;;;;
2021/05/23 13:13:12;;;;;;;;;;;;;;;;;;;;;
2021/05/23 13:15:47;;;;;;;9.82;1.30;;;;;;;11.03;75.32;99584.78;6256571;23;20023;-78
2021/05/23 13:18:29;;;;;;;;;;;;;;;;;;;;;
2021/05/23 13:21:48;;;;;;;;;;;;;;;;;;;;;
2021/05/23 13:25:10;;;;;;;;;;;;;;;;;;;;;
2021/05/23 13:28:10;;;;;;;5.68;1.02;;;;;;;11.32;70.39;99544.50;6255631;23;20030;-76
2021/05/23 13:30:49;;;;;;;;;;;;;;;;;;;;;
2021/05/23 13:33:45;;;;;;;;;;;;;;;;;;;;;
2021/05/23 13:36:15;;;;;;;;;;;;;;;12.00;67.54;99553.50;6253936;23;20039;-81
2021/05/23 13:39:15;;;;;;;5.50;0.85;;;;;;;12.07;64.99;99569.53;6278685;22;19942;-77
2021/05/23 13:42:54;;;;;;;;;;;;;;;;;;;;;
2021/05/23 13:45:49;;;;;;;;;;;;;;;;;;;;;
2021/05/23 13:49:11;;;;;;;;;;;;;;;;;;;;;
2021/05/23 13:51:39;;;;;;;3.47;0.70;;;;;;;11.87;67.65;99543.22;6088577;23;20033;-78
2021/05/23 13:54:23;;;;;;;;;;;;;;;;;;;;;
2021/05/23 13:57:09;;;;;;;5.65;1.00;;;;;;;12.02;66.22;99521.13;6267705;22;20026;-78
2021/05/23 13:59:48;;;;;;;;;;;;;;;;;;;;;
2021/05/23 14:02:16;;;;;;;3.40;0.80;;;;;;;12.34;64.33;99513.22;6289769;22;20000;-76
2021/05/23 14:04:54;;;;;;;2.80;0.55;;;;;;;12.62;64.88;99508.63;6260500;22;20015;-76
2021/05/23 14:07:25;;;;;;;5.25;0.80;;;;;;;12.90;62.51;99497.66;6287837;22;19999;-77
2021/05/23 14:13:28;;;;;;;5.82;0.70;;;;;;;12.95;62.18;99464.63;6267417;22;20020;-76
2021/05/23 14:16:13;;;;;;;6.07;1.05;;;;;;;12.93;63.63;99497.06;6286917;22;20030;-78
2021/05/23 14:18:41;;;;;;;;;;;;;;;12.70;65.98;99518.91;6258824;22;20014;-75
2021/05/23 14:21:29;;;;;;;;;;;;;;;;;;;;;
2021/05/23 14:24:08;;;;;;;;;;;;;;;;;;;;;
2021/05/23 14:26:56;;;;;;;2.88;0.77;;;;;;;11.58;73.76;99474.91;6285654;22;20039;-77
2021/05/23 14:29:34;;;;;;;;;;;;;;;;;;;;;
2021/05/23 14:32:49;;;;;;;8.27;1.23;;;;;;;11.04;77.28;99483.28;6266052;22;20027;-80
2021/05/23 14:35:20;;;;;;;10.63;1.83;;;;;;;10.80;78.55;99488.75;6251545;22;20007;-76
2021/05/23 14:37:48;;;;;;;6.90;0.95;;;;;;;10.47;80.29;99474.88;6257711;22;20044;-78
2021/05/23 14:40:16;;;;;;;7.50;1.10;;;;;;;10.27;81.43;99468.47;6288066;22;20082;-76
2021/05/23 14:42:42;;;;;;;12.65;1.08;;;;;;;10.15;82.08;99495.34;6288214;22;20003;-79
2021/05/23 14:45:09;;;;;;;6.68;2.28;;;;;;;9.99;83.41;99461.03;6262200;22;20007;-77
2021/05/23 14:47:35;;;;;;;7.95;1.33;;;;;;;9.89;83.46;99460.03;6290106;22;20030;-77
2021/05/23 14:50:14;;;;;;;6.40;1.00;;;;;;;9.93;84.22;99443.91;6256565;22;20003;-78
2021/05/23 14:52:40;;;;;;;6.20;1.55;;;;;;;10.12;84.50;99438.56;6287653;22;20000;-75
2021/05/23 14:55:10;;;;;;;12.95;1.25;;;;;;;10.20;84.74;99437.91;6287971;22;20003;-76
2021/05/23 14:57:47;;;;;;;6.63;0.70;;;;;;;10.19;83.51;99422.66;6262451;22;20008;-75
2021/05/23 15:00:16;;;;;;;11.02;1.75;;;;;;;10.14;83.95;99437.16;6260725;22;20004;-75
2021/05/23 15:02:43;;;;;;;5.28;1.38;;;;;;;10.19;84.63;99427.28;6261654;22;20073;-77
2021/05/23 15:05:09;;;;;;;4.72;1.30;;;;;;;10.20;84.50;99427.00;6262736;22;20019;-77
2021/05/23 15:07:35;;;;;;;5.38;1.60;;;;;;;10.20;84.17;99398.88;6288136;22;20078;-77
2021/05/23 15:10:04;;;;;;;8.48;1.30;;;;;;;10.18;84.60;99399.16;6288898;22;20034;-79
2021/05/23 15:12:30;;;;;;;3.15;1.02;;;;;;;10.17;84.43;99381.13;6290577;22;20076;-78
2021/05/23 15:14:59;;;;;;;5.78;1.17;;;;;;;10.16;85.01;99382.22;6261092;22;20014;-76
2021/05/23 15:17:26;;;;;;;12.02;1.48;;;;;;;10.12;85.05;99381.19;6263999;22;20003;-79
2021/05/23 15:19:51;;;;;;;4.03;1.00;;;;;;;10.12;84.97;99364.81;6263515;22;20003;-78
2021/05/23 15:22:17;;;;;;;7.07;1.67;;;;;;;10.17;85.28;99367.47;6261289;22;20069;-77
2021/05/23 15:24:51;;;;;;;3.47;1.20;;;;;;;10.21;85.45;99374.00;6235684;22;20065;-75
2021/05/23 15:30:03;;;;;;;9.48;1.52;;;;;;;10.23;85.24;99369.03;6254293;22;20011;-74
2021/05/23 15:32:30;;;;;;;5.40;1.50;;;;;;;10.11;84.89;99357.69;6279330;22;19999;-72
2021/05/23 15:34:56;;;;;;;8.88;1.02;;;;;;;10.12;85.78;99359.34;6275310;22;20092;-72
2021/05/23 15:37:23;;;;;;;4.93;1.70;;;;;;;10.06;85.74;99355.00;6238660;22;20431;-72
2021/05/23 15:40:01;;;;;;;6.95;1.40;;;;;;;10.22;85.78;99337.38;6250159;22;20085;-74
2021/05/23 15:43:48;;;;;;;;;;;;;;;;;;;;;
2021/05/23 15:47:01;;;;;;;;;;;;;;;;;;;;;
2021/05/23 15:56:53;;;;;;;7.38;1.10;;;;;;;10.67;84.88;99276.97;6077145;23;20018;-77
2021/05/23 15:59:30;;;;;;;;;;;;;;;;;;;;;
2021/05/23 16:02:08;;;;;;;5.93;1.20;;;;;;;10.56;85.10;99287.25;6245513;22;20035;-77
2021/05/23 16:05:27;;;;;;;;;;;;;;;;;;;;;
2021/05/23 16:07:55;;;;;;;5.28;1.52;;;;;;;10.66;84.94;99280.84;6247863;22;20039;-76
2021/05/23 16:10:21;;;;;;;4.10;1.13;;;;;;;10.55;84.87;99258.28;6257277;22;20056;-77
2021/05/23 16:13:00;;;;;;;4.90;1.02;;;;;;;10.57;84.95;99253.34;6249496;22;20003;-76
2021/05/23 16:15:25;;;;;;;2.05;1.05;;;;;;;10.67;85.02;99244.16;6233578;22;20504;-74
2021/05/23 16:18:04;;;;;;;;;;;;;;;;;;;;;
2021/05/23 16:20:29;;;;;;;4.95;1.35;;;;;;;10.56;84.61;99248.97;6284847;22;20034;-71
2021/05/23 16:22:57;;;;;;;10.90;1.27;;;;;;;10.39;84.94;99221.34;6270610;22;20007;-71